sensor_id;sensor_type;location;lat;lon;timestamp;P1;durP1;ratioP1;P2;durP2;ratioP2
66127;SDS011;52925;52.436;-1.952;2023-03-23T00:01:04;8.53;;;1.63;;
66127;SDS011;52925;52.436;-1.952;2023-03-23T00:02:24;7.87;;;1.40;;
66127;SDS011;52925;52.436;-1.952;2023-03-23T00:03:47;8.20;;;1.70;;
66127;SDS011;52925;52.436;-1.952;2023-03-23T00:05:07;7.00;;;1.30;;
66127;SDS011;52925;52.436;-1.952;2023-03-23T00:06:30;5.70;;;1.37;;
66127;SDS011;52925;52.436;-1.952;2023-03-23T00:07:51;7.97;;;1.37;;
66127;SDS011;52925;52.436;-1.952;2023-03-23T00:09:14;7.10;;;1.40;;
66127;SDS011;52925;52.436;-1.952;2023-03-23T00:10:36;6.90;;;1.47;;
66127;SDS011;52925;52.436;-1.952;2023-03-23T00:11:56;7.70;;;1.20;;
66127;SDS011;52925;52.436;-1.952;2023-03-23T00:13:23;8.53;;;1.30;;
66127;SDS011;52925;52.436;-1.952;2023-03-23T00:14:43;7.07;;;1.20;;
66127;SDS011;52925;52.436;-1.952;2023-03-23T00:16:04;7.40;;;1.23;;
66127;SDS011;52925;52.436;-1.952;2023-03-23T00:17:36;6.37;;;1.20;;
66127;SDS011;52925;52.436;-1.952;2023-03-23T00:18:58;6.97;;;1.50;;
66127;SDS011;52925;52.436;-1.952;2023-03-23T00:20:19;7.90;;;1.43;;
66127;SDS011;52925;52.436;-1.952;2023-03-23T00:21:44;6.20;;;1.00;;
66127;SDS011;52925;52.436;-1.952;2023-03-23T00:23:06;6.73;;;1.10;;
66127;SDS011;52925;52.436;-1.952;2023-03-23T00:24:26;3.50;;;1.10;;
66127;SDS011;52925;52.436;-1.952;2023-03-23T00:25:48;4.87;;;1.00;;
66127;SDS011;52925;52.436;-1.952;2023-03-23T00:27:11;5.63;;;1.37;;
66127;SDS011;52925;52.436;-1.952;2023-03-23T00:28:34;4.57;;;1.00;;
66127;SDS011;52925;52.436;-1.952;2023-03-23T00:29:54;5.30;;;1.40;;
66127;SDS011;52925;52.436;-1.952;2023-03-23T00:31:15;6.07;;;0.87;;
66127;SDS011;52925;52.436;-1.952;2023-03-23T06:10:46;13.10;;;2.50;;
66127;SDS011;52925;52.436;-1.952;2023-03-23T06:22:52;13.20;;;2.63;;
66127;SDS011;52925;52.436;-1.952;2023-03-23T06:24:22;11.17;;;2.17;;
66127;SDS011;52925;52.436;-1.952;2023-03-23T06:25:43;15.90;;;2.70;;
66127;SDS011;52925;52.436;-1.952;2023-03-23T06:27:06;9.90;;;2.20;;
66127;SDS011;52925;52.436;-1.952;2023-03-23T06:28:31;11.07;;;2.03;;
66127;SDS011;52925;52.436;-1.952;2023-03-23T06:29:54;14.67;;;2.77;;
66127;SDS011;52925;52.436;-1.952;2023-03-23T06:31:15;18.50;;;2.70;;
66127;SDS011;52925;52.436;-1.952;2023-03-23T06:32:40;14.67;;;2.83;;
66127;SDS011;52925;52.436;-1.952;2023-03-23T06:34:04;16.40;;;2.80;;
66127;SDS011;52925;52.436;-1.952;2023-03-23T06:35:45;14.27;;;2.67;;
66127;SDS011;52925;52.436;-1.952;2023-03-23T06:37:18;15.63;;;2.50;;
66127;SDS011;52925;52.436;-1.952;2023-03-23T06:38:59;11.00;;;2.43;;
66127;SDS011;52925;52.436;-1.952;2023-03-23T06:40:35;16.03;;;2.90;;
66127;SDS011;52925;52.436;-1.952;2023-03-23T06:41:57;15.30;;;2.97;;
66127;SDS011;52925;52.436;-1.952;2023-03-23T06:43:22;13.37;;;2.43;;
66127;SDS011;52925;52.436;-1.952;2023-03-23T06:44:58;14.30;;;2.83;;
66127;SDS011;52925;52.436;-1.952;2023-03-23T06:46:20;10.60;;;2.37;;
66127;SDS011;52925;52.436;-1.952;2023-03-23T06:48:00;11.37;;;2.10;;
66127;SDS011;52925;52.436;-1.952;2023-03-23T06:49:22;17.57;;;2.60;;
66127;SDS011;52925;52.436;-1.952;2023-03-23T17:46:09;9.27;;;2.43;;
66127;SDS011;52925;52.436;-1.952;2023-03-23T17:47:30;7.37;;;1.80;;
66127;SDS011;52925;52.436;-1.952;2023-03-23T17:48:51;8.53;;;2.57;;
66127;SDS011;52925;52.436;-1.952;2023-03-23T17:50:12;10.70;;;2.47;;
66127;SDS011;52925;52.436;-1.952;2023-03-23T17:51:33;6.20;;;1.57;;
66127;SDS011;52925;52.436;-1.952;2023-03-23T17:52:54;10.27;;;2.03;;
66127;SDS011;52925;52.436;-1.952;2023-03-23T17:54:15;8.40;;;1.90;;
66127;SDS011;52925;52.436;-1.952;2023-03-23T17:55:36;7.00;;;2.30;;
66127;SDS011;52925;52.436;-1.952;2023-03-23T17:56:58;8.53;;;1.97;;
66127;SDS011;52925;52.436;-1.952;2023-03-23T17:58:22;8.20;;;2.40;;
66127;SDS011;52925;52.436;-1.952;2023-03-23T17:59:44;6.57;;;1.80;;
66127;SDS011;52925;52.436;-1.952;2023-03-23T18:01:05;8.00;;;2.30;;
66127;SDS011;52925;52.436;-1.952;2023-03-23T18:02:28;8.00;;;2.37;;
66127;SDS011;52925;52.436;-1.952;2023-03-23T18:03:49;7.20;;;2.00;;
66127;SDS011;52925;52.436;-1.952;2023-03-23T18:05:10;7.63;;;2.03;;
66127;SDS011;52925;52.436;-1.952;2023-03-23T18:06:32;11.33;;;2.13;;
66127;SDS011;52925;52.436;-1.952;2023-03-23T18:07:53;7.30;;;1.53;;
66127;SDS011;52925;52.436;-1.952;2023-03-23T18:09:14;8.40;;;2.47;;
66127;SDS011;52925;52.436;-1.952;2023-03-23T18:10:35;7.67;;;2.00;;
66127;SDS011;52925;52.436;-1.952;2023-03-23T18:11:57;7.97;;;2.23;;
66127;SDS011;52925;52.436;-1.952;2023-03-23T18:13:19;7.90;;;2.10;;
66127;SDS011;52925;52.436;-1.952;2023-03-23T18:14:39;9.20;;;2.10;;
66127;SDS011;52925;52.436;-1.952;2023-03-23T18:16:00;5.17;;;1.80;;
66127;SDS011;52925;52.436;-1.952;2023-03-23T18:17:24;5.90;;;2.03;;
66127;SDS011;52925;52.436;-1.952;2023-03-23T18:18:45;6.53;;;1.93;;
66127;SDS011;52925;52.436;-1.952;2023-03-23T18:20:06;7.27;;;1.73;;
66127;SDS011;52925;52.436;-1.952;2023-03-23T18:21:27;5.97;;;1.73;;
66127;SDS011;52925;52.436;-1.952;2023-03-23T18:22:48;7.17;;;1.90;;
66127;SDS011;52925;52.436;-1.952;2023-03-23T18:24:09;5.60;;;1.77;;
66127;SDS011;52925;52.436;-1.952;2023-03-23T18:25:30;6.27;;;1.90;;
66127;SDS011;52925;52.436;-1.952;2023-03-23T18:26:50;6.83;;;1.73;;
66127;SDS011;52925;52.436;-1.952;2023-03-23T18:28:11;5.97;;;1.70;;
66127;SDS011;52925;52.436;-1.952;2023-03-23T18:29:32;6.43;;;1.80;;
66127;SDS011;52925;52.436;-1.952;2023-03-23T18:30:53;8.00;;;1.57;;
66127;SDS011;52925;52.436;-1.952;2023-03-23T18:32:14;6.03;;;1.77;;
66127;SDS011;52925;52.436;-1.952;2023-03-23T18:33:39;4.43;;;1.67;;
66127;SDS011;52925;52.436;-1.952;2023-03-23T18:35:05;5.90;;;1.50;;
66127;SDS011;52925;52.436;-1.952;2023-03-23T18:36:27;5.57;;;1.53;;
66127;SDS011;52925;52.436;-1.952;2023-03-23T18:37:48;5.00;;;1.30;;
66127;SDS011;52925;52.436;-1.952;2023-03-23T18:39:09;4.57;;;1.23;;
66127;SDS011;52925;52.436;-1.952;2023-03-23T18:40:30;3.30;;;1.53;;
66127;SDS011;52925;52.436;-1.952;2023-03-23T18:41:49;4.10;;;1.47;;
66127;SDS011;52925;52.436;-1.952;2023-03-23T18:43:11;4.90;;;1.40;;
66127;SDS011;52925;52.436;-1.952;2023-03-23T18:44:32;4.33;;;1.50;;
66127;SDS011;52925;52.436;-1.952;2023-03-23T18:45:54;3.83;;;1.50;;
66127;SDS011;52925;52.436;-1.952;2023-03-23T18:47:15;5.03;;;1.47;;
66127;SDS011;52925;52.436;-1.952;2023-03-23T18:48:35;4.10;;;1.63;;
66127;SDS011;52925;52.436;-1.952;2023-03-23T18:49:58;5.53;;;1.57;;
66127;SDS011;52925;52.436;-1.952;2023-03-23T18:51:19;5.57;;;1.80;;
66127;SDS011;52925;52.436;-1.952;2023-03-23T18:52:39;3.93;;;1.23;;
66127;SDS011;52925;52.436;-1.952;2023-03-23T18:54:00;5.43;;;1.30;;
66127;SDS011;52925;52.436;-1.952;2023-03-23T18:55:21;2.40;;;1.30;;
66127;SDS011;52925;52.436;-1.952;2023-03-23T18:56:42;4.37;;;1.30;;
66127;SDS011;52925;52.436;-1.952;2023-03-23T18:58:03;4.13;;;1.30;;
66127;SDS011;52925;52.436;-1.952;2023-03-23T18:59:24;3.93;;;1.07;;
66127;SDS011;52925;52.436;-1.952;2023-03-23T19:00:48;4.97;;;1.60;;
66127;SDS011;52925;52.436;-1.952;2023-03-23T19:02:08;3.57;;;1.27;;
66127;SDS011;52925;52.436;-1.952;2023-03-23T19:03:31;2.73;;;1.00;;
66127;SDS011;52925;52.436;-1.952;2023-03-23T19:04:53;2.87;;;1.03;;
66127;SDS011;52925;52.436;-1.952;2023-03-23T19:06:16;3.73;;;1.27;;
66127;SDS011;52925;52.436;-1.952;2023-03-23T19:07:38;3.93;;;0.90;;
66127;SDS011;52925;52.436;-1.952;2023-03-23T19:08:59;2.47;;;1.00;;
66127;SDS011;52925;52.436;-1.952;2023-03-23T19:10:21;4.57;;;1.33;;
66127;SDS011;52925;52.436;-1.952;2023-03-23T19:11:42;3.00;;;1.10;;
66127;SDS011;52925;52.436;-1.952;2023-03-23T19:13:04;3.47;;;1.10;;
66127;SDS011;52925;52.436;-1.952;2023-03-23T19:14:25;2.87;;;1.03;;
66127;SDS011;52925;52.436;-1.952;2023-03-23T19:15:46;3.17;;;1.07;;
66127;SDS011;52925;52.436;-1.952;2023-03-23T19:17:07;3.53;;;1.07;;
66127;SDS011;52925;52.436;-1.952;2023-03-23T19:18:28;3.07;;;1.20;;
66127;SDS011;52925;52.436;-1.952;2023-03-23T19:19:49;3.83;;;1.00;;
66127;SDS011;52925;52.436;-1.952;2023-03-23T19:21:11;2.63;;;1.13;;
66127;SDS011;52925;52.436;-1.952;2023-03-23T19:22:33;2.07;;;0.90;;
66127;SDS011;52925;52.436;-1.952;2023-03-23T19:23:54;2.60;;;0.90;;
66127;SDS011;52925;52.436;-1.952;2023-03-23T19:25:15;2.87;;;1.07;;
66127;SDS011;52925;52.436;-1.952;2023-03-23T19:26:37;2.40;;;1.07;;
66127;SDS011;52925;52.436;-1.952;2023-03-23T19:28:00;2.87;;;1.20;;
66127;SDS011;52925;52.436;-1.952;2023-03-23T19:29:21;2.47;;;1.10;;
66127;SDS011;52925;52.436;-1.952;2023-03-23T19:30:44;2.37;;;0.90;;
66127;SDS011;52925;52.436;-1.952;2023-03-23T19:32:06;3.87;;;1.00;;
66127;SDS011;52925;52.436;-1.952;2023-03-23T19:33:28;3.63;;;1.07;;
66127;SDS011;52925;52.436;-1.952;2023-03-23T19:34:49;1.57;;;0.97;;
66127;SDS011;52925;52.436;-1.952;2023-03-23T19:36:10;2.27;;;1.20;;
66127;SDS011;52925;52.436;-1.952;2023-03-23T19:37:32;1.50;;;0.77;;
66127;SDS011;52925;52.436;-1.952;2023-03-23T19:38:54;1.43;;;0.90;;
66127;SDS011;52925;52.436;-1.952;2023-03-23T19:40:15;2.80;;;0.80;;
66127;SDS011;52925;52.436;-1.952;2023-03-23T19:41:36;2.40;;;0.80;;
66127;SDS011;52925;52.436;-1.952;2023-03-23T19:42:57;3.27;;;1.07;;
66127;SDS011;52925;52.436;-1.952;2023-03-23T19:44:18;1.80;;;1.00;;
66127;SDS011;52925;52.436;-1.952;2023-03-23T19:45:39;1.80;;;0.80;;
66127;SDS011;52925;52.436;-1.952;2023-03-23T19:47:00;2.73;;;1.10;;
66127;SDS011;52925;52.436;-1.952;2023-03-23T19:48:21;2.17;;;1.10;;
66127;SDS011;52925;52.436;-1.952;2023-03-23T19:49:43;1.83;;;0.80;;
66127;SDS011;52925;52.436;-1.952;2023-03-23T19:51:05;2.33;;;0.80;;
66127;SDS011;52925;52.436;-1.952;2023-03-23T19:52:26;1.07;;;0.70;;
66127;SDS011;52925;52.436;-1.952;2023-03-23T19:53:49;1.53;;;0.80;;
66127;SDS011;52925;52.436;-1.952;2023-03-23T19:55:10;2.20;;;1.00;;
66127;SDS011;52925;52.436;-1.952;2023-03-23T19:56:31;3.37;;;0.73;;
66127;SDS011;52925;52.436;-1.952;2023-03-23T19:57:52;1.00;;;0.70;;
66127;SDS011;52925;52.436;-1.952;2023-03-23T19:59:13;2.57;;;1.07;;
66127;SDS011;52925;52.436;-1.952;2023-03-23T20:00:35;1.87;;;0.90;;
66127;SDS011;52925;52.436;-1.952;2023-03-23T20:01:56;2.27;;;0.90;;
66127;SDS011;52925;52.436;-1.952;2023-03-23T20:03:17;1.27;;;0.90;;
66127;SDS011;52925;52.436;-1.952;2023-03-23T20:04:38;3.13;;;1.00;;
66127;SDS011;52925;52.436;-1.952;2023-03-23T20:05:59;1.80;;;0.80;;
66127;SDS011;52925;52.436;-1.952;2023-03-23T20:07:21;1.43;;;0.80;;
66127;SDS011;52925;52.436;-1.952;2023-03-23T20:08:42;2.20;;;0.83;;
66127;SDS011;52925;52.436;-1.952;2023-03-23T20:10:05;1.60;;;0.77;;
66127;SDS011;52925;52.436;-1.952;2023-03-23T20:11:27;2.67;;;0.80;;
66127;SDS011;52925;52.436;-1.952;2023-03-23T20:12:49;1.83;;;0.90;;
66127;SDS011;52925;52.436;-1.952;2023-03-23T20:14:10;2.33;;;0.83;;
66127;SDS011;52925;52.436;-1.952;2023-03-23T20:15:30;2.30;;;0.80;;
66127;SDS011;52925;52.436;-1.952;2023-03-23T20:16:52;3.23;;;0.87;;
66127;SDS011;52925;52.436;-1.952;2023-03-23T20:18:13;1.57;;;0.80;;
66127;SDS011;52925;52.436;-1.952;2023-03-23T20:19:36;1.90;;;0.90;;
66127;SDS011;52925;52.436;-1.952;2023-03-23T20:21:00;1.83;;;0.80;;
66127;SDS011;52925;52.436;-1.952;2023-03-23T20:22:21;3.33;;;1.10;;
66127;SDS011;52925;52.436;-1.952;2023-03-23T20:23:42;1.00;;;0.60;;
66127;SDS011;52925;52.436;-1.952;2023-03-23T20:25:05;2.53;;;0.73;;
66127;SDS011;52925;52.436;-1.952;2023-03-23T20:26:28;1.80;;;0.93;;
66127;SDS011;52925;52.436;-1.952;2023-03-23T20:27:50;2.13;;;1.10;;
66127;SDS011;52925;52.436;-1.952;2023-03-23T20:29:11;2.73;;;1.00;;
66127;SDS011;52925;52.436;-1.952;2023-03-23T20:30:31;4.07;;;0.90;;
66127;SDS011;52925;52.436;-1.952;2023-03-23T20:31:53;1.47;;;0.77;;
66127;SDS011;52925;52.436;-1.952;2023-03-23T20:33:14;1.40;;;0.83;;
66127;SDS011;52925;52.436;-1.952;2023-03-23T20:34:37;1.77;;;0.90;;
66127;SDS011;52925;52.436;-1.952;2023-03-23T20:35:58;1.30;;;0.80;;
66127;SDS011;52925;52.436;-1.952;2023-03-23T20:37:20;1.93;;;0.90;;
66127;SDS011;52925;52.436;-1.952;2023-03-23T20:38:42;2.40;;;0.93;;
66127;SDS011;52925;52.436;-1.952;2023-03-23T20:40:05;1.50;;;0.70;;
66127;SDS011;52925;52.436;-1.952;2023-03-23T20:41:29;1.33;;;0.80;;
66127;SDS011;52925;52.436;-1.952;2023-03-23T20:42:50;1.20;;;0.90;;
66127;SDS011;52925;52.436;-1.952;2023-03-23T20:44:12;1.83;;;0.80;;
66127;SDS011;52925;52.436;-1.952;2023-03-23T20:45:33;1.53;;;0.80;;
66127;SDS011;52925;52.436;-1.952;2023-03-23T20:46:54;2.27;;;0.80;;
66127;SDS011;52925;52.436;-1.952;2023-03-23T20:48:15;1.23;;;0.90;;
66127;SDS011;52925;52.436;-1.952;2023-03-23T20:49:36;1.60;;;1.00;;
66127;SDS011;52925;52.436;-1.952;2023-03-23T20:50:58;1.83;;;1.00;;
66127;SDS011;52925;52.436;-1.952;2023-03-23T20:52:19;2.07;;;0.80;;
66127;SDS011;52925;52.436;-1.952;2023-03-23T20:53:41;2.27;;;1.00;;
66127;SDS011;52925;52.436;-1.952;2023-03-23T20:55:01;1.63;;;0.90;;
66127;SDS011;52925;52.436;-1.952;2023-03-23T20:56:24;1.47;;;0.87;;
66127;SDS011;52925;52.436;-1.952;2023-03-23T20:57:46;2.33;;;1.07;;
66127;SDS011;52925;52.436;-1.952;2023-03-23T20:59:07;1.80;;;1.20;;
66127;SDS011;52925;52.436;-1.952;2023-03-23T21:00:27;3.00;;;0.90;;
66127;SDS011;52925;52.436;-1.952;2023-03-23T21:01:48;1.53;;;1.07;;
66127;SDS011;52925;52.436;-1.952;2023-03-23T21:03:09;2.87;;;0.90;;
66127;SDS011;52925;52.436;-1.952;2023-03-23T21:04:30;2.43;;;0.90;;
66127;SDS011;52925;52.436;-1.952;2023-03-23T21:05:51;1.47;;;0.77;;
66127;SDS011;52925;52.436;-1.952;2023-03-23T21:07:12;1.73;;;1.10;;
66127;SDS011;52925;52.436;-1.952;2023-03-23T21:08:34;1.90;;;1.17;;
66127;SDS011;52925;52.436;-1.952;2023-03-23T21:09:56;3.30;;;1.50;;
66127;SDS011;52925;52.436;-1.952;2023-03-23T21:11:18;3.03;;;1.00;;
66127;SDS011;52925;52.436;-1.952;2023-03-23T21:12:44;2.23;;;0.70;;
66127;SDS011;52925;52.436;-1.952;2023-03-23T21:14:05;2.90;;;1.00;;
66127;SDS011;52925;52.436;-1.952;2023-03-23T21:15:26;2.37;;;0.93;;
66127;SDS011;52925;52.436;-1.952;2023-03-23T21:16:46;1.70;;;0.90;;
66127;SDS011;52925;52.436;-1.952;2023-03-23T21:18:07;2.50;;;0.90;;
66127;SDS011;52925;52.436;-1.952;2023-03-23T21:19:28;1.70;;;0.87;;
66127;SDS011;52925;52.436;-1.952;2023-03-23T21:20:49;2.43;;;0.80;;
66127;SDS011;52925;52.436;-1.952;2023-03-23T21:22:10;2.07;;;0.90;;
66127;SDS011;52925;52.436;-1.952;2023-03-23T21:23:32;1.67;;;0.90;;
66127;SDS011;52925;52.436;-1.952;2023-03-23T21:24:53;1.57;;;1.10;;
66127;SDS011;52925;52.436;-1.952;2023-03-23T21:26:14;2.23;;;1.10;;
66127;SDS011;52925;52.436;-1.952;2023-03-23T21:27:36;2.57;;;1.20;;
66127;SDS011;52925;52.436;-1.952;2023-03-23T21:28:58;2.60;;;1.00;;
66127;SDS011;52925;52.436;-1.952;2023-03-23T21:30:19;2.60;;;1.07;;
66127;SDS011;52925;52.436;-1.952;2023-03-23T21:31:41;1.80;;;1.00;;
66127;SDS011;52925;52.436;-1.952;2023-03-23T21:33:02;2.63;;;1.00;;
66127;SDS011;52925;52.436;-1.952;2023-03-23T21:34:22;2.13;;;1.00;;
66127;SDS011;52925;52.436;-1.952;2023-03-23T21:35:42;2.03;;;0.90;;
66127;SDS011;52925;52.436;-1.952;2023-03-23T21:37:03;1.97;;;1.20;;
66127;SDS011;52925;52.436;-1.952;2023-03-23T21:38:24;2.63;;;0.93;;
66127;SDS011;52925;52.436;-1.952;2023-03-23T21:39:45;2.33;;;1.17;;
66127;SDS011;52925;52.436;-1.952;2023-03-23T21:41:07;2.40;;;1.00;;
66127;SDS011;52925;52.436;-1.952;2023-03-23T21:42:28;4.47;;;1.20;;
66127;SDS011;52925;52.436;-1.952;2023-03-23T21:43:49;1.63;;;0.90;;
66127;SDS011;52925;52.436;-1.952;2023-03-23T21:45:11;2.10;;;1.07;;
66127;SDS011;52925;52.436;-1.952;2023-03-23T21:46:38;1.90;;;0.90;;
66127;SDS011;52925;52.436;-1.952;2023-03-23T21:48:01;6.00;;;1.30;;
66127;SDS011;52925;52.436;-1.952;2023-03-23T21:49:21;2.50;;;1.13;;
66127;SDS011;52925;52.436;-1.952;2023-03-23T21:50:42;2.60;;;1.00;;
66127;SDS011;52925;52.436;-1.952;2023-03-23T21:52:03;2.73;;;1.07;;
66127;SDS011;52925;52.436;-1.952;2023-03-23T21:53:24;2.80;;;1.23;;
66127;SDS011;52925;52.436;-1.952;2023-03-23T21:54:45;2.43;;;1.00;;
66127;SDS011;52925;52.436;-1.952;2023-03-23T21:56:07;2.40;;;0.97;;
66127;SDS011;52925;52.436;-1.952;2023-03-23T21:57:28;1.70;;;0.90;;
66127;SDS011;52925;52.436;-1.952;2023-03-23T21:58:49;3.60;;;1.20;;
66127;SDS011;52925;52.436;-1.952;2023-03-23T22:00:12;3.37;;;1.07;;
66127;SDS011;52925;52.436;-1.952;2023-03-23T22:01:34;4.27;;;1.17;;
66127;SDS011;52925;52.436;-1.952;2023-03-23T22:02:54;3.00;;;1.63;;
66127;SDS011;52925;52.436;-1.952;2023-03-23T22:04:15;4.03;;;1.10;;
66127;SDS011;52925;52.436;-1.952;2023-03-23T22:05:38;1.90;;;1.23;;
66127;SDS011;52925;52.436;-1.952;2023-03-23T22:06:58;2.33;;;1.10;;
66127;SDS011;52925;52.436;-1.952;2023-03-23T22:08:20;3.07;;;1.30;;
66127;SDS011;52925;52.436;-1.952;2023-03-23T22:09:41;4.60;;;1.20;;
66127;SDS011;52925;52.436;-1.952;2023-03-23T22:11:04;2.10;;;0.97;;
66127;SDS011;52925;52.436;-1.952;2023-03-23T22:12:27;2.20;;;1.10;;
66127;SDS011;52925;52.436;-1.952;2023-03-23T22:13:49;3.23;;;1.30;;
66127;SDS011;52925;52.436;-1.952;2023-03-23T22:15:12;2.97;;;1.00;;
66127;SDS011;52925;52.436;-1.952;2023-03-23T22:16:32;3.10;;;1.10;;
66127;SDS011;52925;52.436;-1.952;2023-03-23T22:17:54;5.07;;;1.53;;
66127;SDS011;52925;52.436;-1.952;2023-03-23T22:19:14;3.40;;;1.20;;
66127;SDS011;52925;52.436;-1.952;2023-03-23T22:20:35;2.90;;;1.60;;
66127;SDS011;52925;52.436;-1.952;2023-03-23T22:21:54;2.67;;;1.23;;
66127;SDS011;52925;52.436;-1.952;2023-03-23T22:23:16;3.53;;;1.40;;
66127;SDS011;52925;52.436;-1.952;2023-03-23T22:24:36;2.93;;;1.40;;
66127;SDS011;52925;52.436;-1.952;2023-03-23T22:25:57;3.10;;;1.50;;
66127;SDS011;52925;52.436;-1.952;2023-03-23T22:27:17;2.10;;;1.33;;
66127;SDS011;52925;52.436;-1.952;2023-03-23T22:28:39;4.53;;;1.83;;
66127;SDS011;52925;52.436;-1.952;2023-03-23T22:30:00;3.90;;;1.30;;
66127;SDS011;52925;52.436;-1.952;2023-03-23T22:31:23;3.43;;;1.40;;
66127;SDS011;52925;52.436;-1.952;2023-03-23T22:32:46;3.10;;;1.77;;
66127;SDS011;52925;52.436;-1.952;2023-03-23T22:34:07;3.83;;;1.90;;
66127;SDS011;52925;52.436;-1.952;2023-03-23T22:35:28;3.80;;;1.77;;
66127;SDS011;52925;52.436;-1.952;2023-03-23T22:36:48;3.73;;;1.57;;
66127;SDS011;52925;52.436;-1.952;2023-03-23T22:38:09;5.00;;;1.73;;
66127;SDS011;52925;52.436;-1.952;2023-03-23T22:39:30;4.40;;;1.63;;
66127;SDS011;52925;52.436;-1.952;2023-03-23T22:40:53;4.00;;;1.83;;
66127;SDS011;52925;52.436;-1.952;2023-03-23T22:42:13;3.00;;;1.67;;
66127;SDS011;52925;52.436;-1.952;2023-03-23T22:43:35;6.70;;;2.03;;
66127;SDS011;52925;52.436;-1.952;2023-03-23T22:44:56;3.83;;;1.67;;
66127;SDS011;52925;52.436;-1.952;2023-03-23T22:46:17;5.17;;;1.90;;
66127;SDS011;52925;52.436;-1.952;2023-03-23T22:47:41;3.53;;;1.83;;
66127;SDS011;52925;52.436;-1.952;2023-03-23T22:49:02;3.70;;;1.50;;
66127;SDS011;52925;52.436;-1.952;2023-03-23T22:50:22;5.13;;;1.87;;
66127;SDS011;52925;52.436;-1.952;2023-03-23T22:51:43;4.27;;;1.57;;
66127;SDS011;52925;52.436;-1.952;2023-03-23T22:53:04;5.23;;;2.13;;
66127;SDS011;52925;52.436;-1.952;2023-03-23T22:54:24;4.40;;;1.87;;
66127;SDS011;52925;52.436;-1.952;2023-03-23T22:55:46;4.03;;;1.77;;
66127;SDS011;52925;52.436;-1.952;2023-03-23T22:57:07;3.47;;;1.73;;
66127;SDS011;52925;52.436;-1.952;2023-03-23T22:58:28;4.43;;;1.97;;
66127;SDS011;52925;52.436;-1.952;2023-03-23T22:59:49;4.73;;;1.90;;
66127;SDS011;52925;52.436;-1.952;2023-03-23T23:01:10;5.60;;;1.90;;
66127;SDS011;52925;52.436;-1.952;2023-03-23T23:02:34;5.67;;;2.10;;
66127;SDS011;52925;52.436;-1.952;2023-03-23T23:03:56;3.93;;;1.77;;
66127;SDS011;52925;52.436;-1.952;2023-03-23T23:05:17;3.20;;;1.90;;
66127;SDS011;52925;52.436;-1.952;2023-03-23T23:06:38;4.30;;;1.70;;
66127;SDS011;52925;52.436;-1.952;2023-03-23T23:07:59;5.73;;;2.17;;
66127;SDS011;52925;52.436;-1.952;2023-03-23T23:09:19;8.33;;;2.33;;
66127;SDS011;52925;52.436;-1.952;2023-03-23T23:10:41;6.60;;;2.27;;
66127;SDS011;52925;52.436;-1.952;2023-03-23T23:12:01;7.17;;;2.20;;
66127;SDS011;52925;52.436;-1.952;2023-03-23T23:13:23;3.80;;;1.90;;
66127;SDS011;52925;52.436;-1.952;2023-03-23T23:14:45;4.13;;;1.97;;
66127;SDS011;52925;52.436;-1.952;2023-03-23T23:16:06;4.33;;;2.03;;
66127;SDS011;52925;52.436;-1.952;2023-03-23T23:17:27;4.27;;;2.10;;
66127;SDS011;52925;52.436;-1.952;2023-03-23T23:18:49;4.50;;;1.87;;
66127;SDS011;52925;52.436;-1.952;2023-03-23T23:20:11;5.20;;;2.00;;
66127;SDS011;52925;52.436;-1.952;2023-03-23T23:21:33;5.30;;;2.10;;
66127;SDS011;52925;52.436;-1.952;2023-03-23T23:22:54;5.57;;;1.80;;
66127;SDS011;52925;52.436;-1.952;2023-03-23T23:24:14;6.50;;;2.50;;
66127;SDS011;52925;52.436;-1.952;2023-03-23T23:25:36;6.00;;;2.33;;
66127;SDS011;52925;52.436;-1.952;2023-03-23T23:26:56;4.13;;;2.00;;
66127;SDS011;52925;52.436;-1.952;2023-03-23T23:28:18;5.00;;;1.97;;
66127;SDS011;52925;52.436;-1.952;2023-03-23T23:29:40;5.77;;;2.13;;
66127;SDS011;52925;52.436;-1.952;2023-03-23T23:31:02;5.60;;;2.30;;
66127;SDS011;52925;52.436;-1.952;2023-03-23T23:32:25;4.97;;;2.30;;
66127;SDS011;52925;52.436;-1.952;2023-03-23T23:33:47;4.27;;;1.80;;
66127;SDS011;52925;52.436;-1.952;2023-03-23T23:35:09;5.13;;;2.17;;
66127;SDS011;52925;52.436;-1.952;2023-03-23T23:36:32;6.00;;;2.50;;
66127;SDS011;52925;52.436;-1.952;2023-03-23T23:37:53;3.03;;;2.17;;
66127;SDS011;52925;52.436;-1.952;2023-03-23T23:39:14;6.80;;;2.50;;
66127;SDS011;52925;52.436;-1.952;2023-03-23T23:40:35;5.40;;;2.00;;
66127;SDS011;52925;52.436;-1.952;2023-03-23T23:41:56;5.50;;;2.27;;
66127;SDS011;52925;52.436;-1.952;2023-03-23T23:43:17;4.17;;;1.93;;
66127;SDS011;52925;52.436;-1.952;2023-03-23T23:44:37;5.83;;;1.90;;
66127;SDS011;52925;52.436;-1.952;2023-03-23T23:45:57;7.23;;;2.10;;
66127;SDS011;52925;52.436;-1.952;2023-03-23T23:47:18;7.33;;;2.40;;
66127;SDS011;52925;52.436;-1.952;2023-03-23T23:48:40;7.50;;;2.23;;
66127;SDS011;52925;52.436;-1.952;2023-03-23T23:50:02;6.43;;;2.40;;
66127;SDS011;52925;52.436;-1.952;2023-03-23T23:51:26;4.93;;;1.93;;
66127;SDS011;52925;52.436;-1.952;2023-03-23T23:52:46;5.40;;;2.10;;
66127;SDS011;52925;52.436;-1.952;2023-03-23T23:54:08;6.00;;;2.00;;
66127;SDS011;52925;52.436;-1.952;2023-03-23T23:55:28;3.40;;;1.70;;
66127;SDS011;52925;52.436;-1.952;2023-03-23T23:56:49;6.77;;;2.00;;
66127;SDS011;52925;52.436;-1.952;2023-03-23T23:58:08;5.83;;;2.10;;
66127;SDS011;52925;52.436;-1.952;2023-03-23T23:59:29;4.97;;;2.30;;
